sensor_id;sensor_type;location;lat;lon;timestamp;pressure;altitude;pressure_sealevel;temperature;humidity
30724;BME280;17473;52.286;20.930;2023-04-22T00:00:16;100286.75;;;11.62;53.51
30724;BME280;17473;52.286;20.930;2023-04-22T00:02:43;100282.91;;;11.51;53.46
30724;BME280;17473;52.286;20.930;2023-04-22T00:05:10;100277.50;;;11.46;54.01
30724;BME280;17473;52.286;20.930;2023-04-22T00:07:42;100283.63;;;11.45;53.81
30724;BME280;17473;52.286;20.930;2023-04-22T00:10:10;100267.59;;;11.39;53.93
30724;BME280;17473;52.286;20.930;2023-04-22T00:12:37;100280.28;;;11.51;53.76
30724;BME280;17473;52.286;20.930;2023-04-22T00:15:05;100275.06;;;11.54;53.70
30724;BME280;17473;52.286;20.930;2023-04-22T00:17:32;100268.53;;;11.41;53.94
30724;BME280;17473;52.286;20.930;2023-04-22T00:20:00;100273.47;;;11.28;54.33
30724;BME280;17473;52.286;20.930;2023-04-22T00:22:27;100262.19;;;11.34;54.59
30724;BME280;17473;52.286;20.930;2023-04-22T00:24:54;100261.88;;;11.23;55.05
30724;BME280;17473;52.286;20.930;2023-04-22T00:27:21;100265.09;;;11.13;55.18
30724;BME280;17473;52.286;20.930;2023-04-22T00:29:48;100265.00;;;11.10;55.33
30724;BME280;17473;52.286;20.930;2023-04-22T00:32:16;100265.16;;;11.16;55.06
30724;BME280;17473;52.286;20.930;2023-04-22T00:34:42;100269.47;;;11.12;55.38
30724;BME280;17473;52.286;20.930;2023-04-22T00:37:10;100269.28;;;11.06;55.46
30724;BME280;17473;52.286;20.930;2023-04-22T00:39:37;100255.28;;;11.09;55.27
30724;BME280;17473;52.286;20.930;2023-04-22T00:42:06;100273.56;;;11.01;55.54
30724;BME280;17473;52.286;20.930;2023-04-22T00:44:35;100265.34;;;10.92;56.12
30724;BME280;17473;52.286;20.930;2023-04-22T00:47:02;100268.88;;;10.92;56.08
30724;BME280;17473;52.286;20.930;2023-04-22T00:49:30;100260.66;;;11.12;55.70
30724;BME280;17473;52.286;20.930;2023-04-22T00:51:58;100265.09;;;11.13;55.25
30724;BME280;17473;52.286;20.930;2023-04-22T00:54:25;100261.59;;;11.14;55.36
30724;BME280;17473;52.286;20.930;2023-04-22T00:56:52;100263.88;;;11.02;55.44
30724;BME280;17473;52.286;20.930;2023-04-22T00:59:20;100261.47;;;10.80;56.16
30724;BME280;17473;52.286;20.930;2023-04-22T01:01:48;100270.44;;;10.86;56.32
30724;BME280;17473;52.286;20.930;2023-04-22T01:04:15;100262.03;;;10.70;56.66
30724;BME280;17473;52.286;20.930;2023-04-22T01:06:44;100258.66;;;10.74;56.61
30724;BME280;17473;52.286;20.930;2023-04-22T01:09:11;100255.88;;;10.70;56.64
30724;BME280;17473;52.286;20.930;2023-04-22T01:11:39;100263.13;;;10.77;56.79
30724;BME280;17473;52.286;20.930;2023-04-22T01:14:06;100246.19;;;10.70;56.98
30724;BME280;17473;52.286;20.930;2023-04-22T01:16:34;100255.44;;;10.56;57.43
30724;BME280;17473;52.286;20.930;2023-04-22T01:19:01;100264.09;;;10.52;57.78
30724;BME280;17473;52.286;20.930;2023-04-22T01:21:28;100252.94;;;10.60;57.27
30724;BME280;17473;52.286;20.930;2023-04-22T01:24:00;100256.88;;;10.46;57.95
30724;BME280;17473;52.286;20.930;2023-04-22T01:26:28;100262.50;;;10.57;57.61
30724;BME280;17473;52.286;20.930;2023-04-22T01:28:55;100267.19;;;10.38;58.19
30724;BME280;17473;52.286;20.930;2023-04-22T01:31:22;100267.94;;;10.36;58.41
30724;BME280;17473;52.286;20.930;2023-04-22T01:33:50;100259.88;;;10.31;58.39
30724;BME280;17473;52.286;20.930;2023-04-22T01:36:17;100271.00;;;10.21;59.10
30724;BME280;17473;52.286;20.930;2023-04-22T01:38:44;100273.63;;;10.21;59.28
30724;BME280;17473;52.286;20.930;2023-04-22T01:41:12;100258.63;;;10.20;59.40
30724;BME280;17473;52.286;20.930;2023-04-22T01:43:41;100265.25;;;10.07;60.10
30724;BME280;17473;52.286;20.930;2023-04-22T01:46:08;100263.66;;;10.12;59.57
30724;BME280;17473;52.286;20.930;2023-04-22T01:48:36;100263.38;;;10.04;59.82
30724;BME280;17473;52.286;20.930;2023-04-22T01:51:04;100261.22;;;9.92;60.41
30724;BME280;17473;52.286;20.930;2023-04-22T01:53:31;100258.22;;;9.81;61.10
30724;BME280;17473;52.286;20.930;2023-04-22T01:55:59;100260.69;;;9.77;61.16
30724;BME280;17473;52.286;20.930;2023-04-22T01:58:28;100262.31;;;9.73;61.28
30724;BME280;17473;52.286;20.930;2023-04-22T02:00:55;100263.34;;;9.77;61.50
30724;BME280;17473;52.286;20.930;2023-04-22T02:03:22;100255.84;;;9.89;61.02
30724;BME280;17473;52.286;20.930;2023-04-22T02:05:50;100259.81;;;9.76;61.46
30724;BME280;17473;52.286;20.930;2023-04-22T02:08:17;100259.19;;;9.83;60.68
30724;BME280;17473;52.286;20.930;2023-04-22T02:10:44;100252.00;;;9.79;60.54
30724;BME280;17473;52.286;20.930;2023-04-22T02:13:11;100249.97;;;9.72;60.86
30724;BME280;17473;52.286;20.930;2023-04-22T02:19:47;100250.28;;;9.55;61.46
30724;BME280;17473;52.286;20.930;2023-04-22T02:22:15;100243.88;;;9.49;61.96
30724;BME280;17473;52.286;20.930;2023-04-22T02:24:42;100250.34;;;9.57;61.78
30724;BME280;17473;52.286;20.930;2023-04-22T02:27:10;100248.81;;;9.64;62.17
30724;BME280;17473;52.286;20.930;2023-04-22T02:29:37;100245.31;;;9.63;62.42
30724;BME280;17473;52.286;20.930;2023-04-22T02:32:04;100237.00;;;9.52;63.06
30724;BME280;17473;52.286;20.930;2023-04-22T02:34:32;100240.41;;;9.50;62.67
30724;BME280;17473;52.286;20.930;2023-04-22T02:36:59;100235.03;;;9.47;62.46
30724;BME280;17473;52.286;20.930;2023-04-22T02:39:26;100235.72;;;9.41;62.53
30724;BME280;17473;52.286;20.930;2023-04-22T02:41:53;100240.41;;;9.50;62.09
30724;BME280;17473;52.286;20.930;2023-04-22T02:44:20;100239.75;;;9.55;61.89
30724;BME280;17473;52.286;20.930;2023-04-22T02:46:47;100238.16;;;9.61;61.19
30724;BME280;17473;52.286;20.930;2023-04-22T02:49:15;100240.41;;;9.50;61.48
30724;BME280;17473;52.286;20.930;2023-04-22T02:51:42;100245.56;;;9.47;61.53
30724;BME280;17473;52.286;20.930;2023-04-22T02:54:09;100234.25;;;9.49;61.24
30724;BME280;17473;52.286;20.930;2023-04-22T02:56:36;100242.75;;;9.66;60.70
30724;BME280;17473;52.286;20.930;2023-04-22T02:59:03;100235.81;;;9.44;61.00
30724;BME280;17473;52.286;20.930;2023-04-22T03:01:30;100233.94;;;9.40;61.20
30724;BME280;17473;52.286;20.930;2023-04-22T03:03:58;100235.56;;;9.36;61.40
30724;BME280;17473;52.286;20.930;2023-04-22T03:06:26;100235.28;;;9.29;61.99
30724;BME280;17473;52.286;20.930;2023-04-22T03:08:53;100242.00;;;9.45;61.21
30724;BME280;17473;52.286;20.930;2023-04-22T03:11:20;100245.19;;;9.36;61.60
30724;BME280;17473;52.286;20.930;2023-04-22T03:13:47;100244.69;;;9.22;62.84
30724;BME280;17473;52.286;20.930;2023-04-22T03:16:16;100247.94;;;9.39;62.33
30724;BME280;17473;52.286;20.930;2023-04-22T03:18:43;100241.50;;;9.31;62.51
30724;BME280;17473;52.286;20.930;2023-04-22T03:21:10;100246.03;;;9.35;62.27
30724;BME280;17473;52.286;20.930;2023-04-22T03:23:37;100250.00;;;9.23;63.13
30724;BME280;17473;52.286;20.930;2023-04-22T03:26:04;100244.22;;;9.34;62.74
30724;BME280;17473;52.286;20.930;2023-04-22T03:28:32;100252.47;;;9.19;63.09
30724;BME280;17473;52.286;20.930;2023-04-22T03:30:59;100247.38;;;9.48;62.30
30724;BME280;17473;52.286;20.930;2023-04-22T03:33:26;100258.81;;;9.24;62.77
30724;BME280;17473;52.286;20.930;2023-04-22T03:35:53;100256.00;;;9.19;63.16
30724;BME280;17473;52.286;20.930;2023-04-22T03:38:21;100256.97;;;9.46;62.18
30724;BME280;17473;52.286;20.930;2023-04-22T03:40:48;100255.09;;;9.43;61.97
30724;BME280;17473;52.286;20.930;2023-04-22T03:43:17;100261.91;;;9.36;62.65
30724;BME280;17473;52.286;20.930;2023-04-22T03:45:45;100249.63;;;9.37;62.48
30724;BME280;17473;52.286;20.930;2023-04-22T03:48:12;100261.13;;;9.63;61.42
30724;BME280;17473;52.286;20.930;2023-04-22T03:50:39;100253.88;;;9.58;61.57
30724;BME280;17473;52.286;20.930;2023-04-22T03:53:07;100255.94;;;9.92;60.63
30724;BME280;17473;52.286;20.930;2023-04-22T03:55:34;100257.75;;;10.74;57.89
30724;BME280;17473;52.286;20.930;2023-04-22T03:58:01;100263.69;;;11.56;55.49
30724;BME280;17473;52.286;20.930;2023-04-22T04:00:28;100264.09;;;12.39;53.21
30724;BME280;17473;52.286;20.930;2023-04-22T04:02:55;100249.56;;;13.39;50.20
30724;BME280;17473;52.286;20.930;2023-04-22T04:05:22;100260.34;;;14.47;47.37
30724;BME280;17473;52.286;20.930;2023-04-22T04:07:49;100258.03;;;14.68;45.95
30724;BME280;17473;52.286;20.930;2023-04-22T04:10:16;100264.50;;;15.57;43.94
30724;BME280;17473;52.286;20.930;2023-04-22T04:12:43;100261.63;;;16.21;42.47
30724;BME280;17473;52.286;20.930;2023-04-22T04:15:10;100258.81;;;17.31;40.32
30724;BME280;17473;52.286;20.930;2023-04-22T04:17:37;100272.34;;;17.91;38.80
30724;BME280;17473;52.286;20.930;2023-04-22T04:20:06;100253.69;;;18.47;37.95
30724;BME280;17473;52.286;20.930;2023-04-22T04:22:33;100262.34;;;19.50;35.88
30724;BME280;17473;52.286;20.930;2023-04-22T04:25:01;100262.13;;;19.99;35.03
30724;BME280;17473;52.286;20.930;2023-04-22T04:27:28;100259.50;;;20.96;33.31
30724;BME280;17473;52.286;20.930;2023-04-22T04:29:55;100261.13;;;21.09;33.32
30724;BME280;17473;52.286;20.930;2023-04-22T04:32:22;100257.69;;;21.73;32.28
30724;BME280;17473;52.286;20.930;2023-04-22T04:34:50;100264.97;;;21.63;32.22
30724;BME280;17473;52.286;20.930;2023-04-22T04:37:18;100270.19;;;22.33;31.18
30724;BME280;17473;52.286;20.930;2023-04-22T04:39:45;100273.63;;;22.95;30.18
30724;BME280;17473;52.286;20.930;2023-04-22T04:42:12;100268.22;;;23.42;29.23
30724;BME280;17473;52.286;20.930;2023-04-22T04:44:40;100270.47;;;24.03;28.56
30724;BME280;17473;52.286;20.930;2023-04-22T04:47:07;100268.78;;;24.36;27.48
30724;BME280;17473;52.286;20.930;2023-04-22T04:49:34;100263.38;;;25.37;26.38
30724;BME280;17473;52.286;20.930;2023-04-22T04:52:06;100271.38;;;26.02;25.33
30724;BME280;17473;52.286;20.930;2023-04-22T04:54:36;100269.34;;;26.64;25.06
30724;BME280;17473;52.286;20.930;2023-04-22T04:57:04;100269.06;;;26.98;24.48
30724;BME280;17473;52.286;20.930;2023-04-22T04:59:31;100266.66;;;27.63;23.50
30724;BME280;17473;52.286;20.930;2023-04-22T05:01:58;100269.19;;;29.00;21.59
30724;BME280;17473;52.286;20.930;2023-04-22T05:04:25;100256.69;;;29.75;20.86
30724;BME280;17473;52.286;20.930;2023-04-22T05:06:53;100271.66;;;30.22;21.01
30724;BME280;17473;52.286;20.930;2023-04-22T05:09:20;100271.94;;;31.05;19.49
30724;BME280;17473;52.286;20.930;2023-04-22T05:11:47;100269.00;;;30.75;20.21
30724;BME280;17473;52.286;20.930;2023-04-22T05:14:14;100273.72;;;31.06;20.14
30724;BME280;17473;52.286;20.930;2023-04-22T05:16:41;100277.47;;;30.51;19.83
30724;BME280;17473;52.286;20.930;2023-04-22T05:19:08;100275.13;;;30.43;19.68
30724;BME280;17473;52.286;20.930;2023-04-22T05:21:35;100263.56;;;32.56;18.11
30724;BME280;17473;52.286;20.930;2023-04-22T05:24:03;100263.97;;;32.34;18.13
30724;BME280;17473;52.286;20.930;2023-04-22T05:26:30;100269.25;;;32.98;17.91
30724;BME280;17473;52.286;20.930;2023-04-22T05:28:57;100266.59;;;32.66;18.00
30724;BME280;17473;52.286;20.930;2023-04-22T05:31:24;100262.53;;;33.03;17.61
30724;BME280;17473;52.286;20.930;2023-04-22T05:33:51;100263.88;;;32.96;17.78
30724;BME280;17473;52.286;20.930;2023-04-22T05:36:18;100267.91;;;32.44;18.10
30724;BME280;17473;52.286;20.930;2023-04-22T05:38:45;100263.91;;;33.83;17.03
30724;BME280;17473;52.286;20.930;2023-04-22T05:41:12;100267.19;;;34.02;16.87
30724;BME280;17473;52.286;20.930;2023-04-22T05:43:39;100268.31;;;34.13;16.81
30724;BME280;17473;52.286;20.930;2023-04-22T05:46:06;100262.69;;;34.29;16.98
30724;BME280;17473;52.286;20.930;2023-04-22T05:48:33;100257.84;;;34.20;16.75
30724;BME280;17473;52.286;20.930;2023-04-22T05:51:00;100264.25;;;35.90;15.84
30724;BME280;17473;52.286;20.930;2023-04-22T05:53:27;100261.47;;;35.65;16.15
30724;BME280;17473;52.286;20.930;2023-04-22T05:55:54;100260.69;;;35.63;15.98
30724;BME280;17473;52.286;20.930;2023-04-22T05:58:21;100264.06;;;36.17;16.04
30724;BME280;17473;52.286;20.930;2023-04-22T06:00:48;100258.72;;;35.39;16.03
30724;BME280;17473;52.286;20.930;2023-04-22T06:03:15;100262.34;;;36.87;15.20
30724;BME280;17473;52.286;20.930;2023-04-22T06:05:43;100260.38;;;36.05;16.15
30724;BME280;17473;52.286;20.930;2023-04-22T06:08:10;100263.94;;;36.18;15.71
30724;BME280;17473;52.286;20.930;2023-04-22T06:10:37;100260.22;;;36.79;14.79
30724;BME280;17473;52.286;20.930;2023-04-22T06:13:04;100257.88;;;36.50;14.87
30724;BME280;17473;52.286;20.930;2023-04-22T06:15:33;100268.56;;;37.36;14.33
30724;BME280;17473;52.286;20.930;2023-04-22T06:18:00;100265.19;;;37.21;14.49
30724;BME280;17473;52.286;20.930;2023-04-22T06:20:28;100256.72;;;36.77;15.05
30724;BME280;17473;52.286;20.930;2023-04-22T06:22:55;100261.66;;;36.37;15.35
30724;BME280;17473;52.286;20.930;2023-04-22T06:25:22;100258.59;;;38.25;13.85
30724;BME280;17473;52.286;20.930;2023-04-22T06:27:49;100260.97;;;37.51;14.12
30724;BME280;17473;52.286;20.930;2023-04-22T06:30:16;100252.06;;;36.67;14.92
30724;BME280;17473;52.286;20.930;2023-04-22T06:32:43;100262.22;;;38.25;14.18
30724;BME280;17473;52.286;20.930;2023-04-22T06:35:10;100266.72;;;38.26;13.57
30724;BME280;17473;52.286;20.930;2023-04-22T06:37:38;100257.59;;;38.26;13.64
30724;BME280;17473;52.286;20.930;2023-04-22T06:40:05;100255.97;;;38.56;13.12
30724;BME280;17473;52.286;20.930;2023-04-22T06:42:33;100254.09;;;39.20;12.83
30724;BME280;17473;52.286;20.930;2023-04-22T06:45:00;100258.03;;;38.54;13.31
30724;BME280;17473;52.286;20.930;2023-04-22T06:47:27;100253.38;;;38.96;13.29
30724;BME280;17473;52.286;20.930;2023-04-22T06:49:55;100256.50;;;38.82;13.45
30724;BME280;17473;52.286;20.930;2023-04-22T06:52:21;100260.31;;;39.33;12.98
30724;BME280;17473;52.286;20.930;2023-04-22T06:54:50;100261.59;;;39.08;12.99
30724;BME280;17473;52.286;20.930;2023-04-22T06:57:17;100248.72;;;39.80;12.36
30724;BME280;17473;52.286;20.930;2023-04-22T06:59:44;100255.66;;;39.12;13.00
30724;BME280;17473;52.286;20.930;2023-04-22T07:02:12;100262.59;;;37.65;13.59
30724;BME280;17473;52.286;20.930;2023-04-22T07:04:40;100258.28;;;38.07;13.73
30724;BME280;17473;52.286;20.930;2023-04-22T07:07:07;100257.47;;;37.49;13.56
30724;BME280;17473;52.286;20.930;2023-04-22T07:09:34;100254.44;;;37.30;13.97
30724;BME280;17473;52.286;20.930;2023-04-22T07:12:03;100252.16;;;38.03;13.36
30724;BME280;17473;52.286;20.930;2023-04-22T07:14:30;100249.88;;;36.94;14.48
30724;BME280;17473;52.286;20.930;2023-04-22T07:16:58;100244.06;;;37.45;14.18
30724;BME280;17473;52.286;20.930;2023-04-22T07:19:26;100249.59;;;37.67;13.81
30724;BME280;17473;52.286;20.930;2023-04-22T07:21:53;100257.19;;;37.98;13.45
30724;BME280;17473;52.286;20.930;2023-04-22T07:24:20;100246.56;;;37.25;13.67
30724;BME280;17473;52.286;20.930;2023-04-22T07:26:47;100251.34;;;35.66;15.05
30724;BME280;17473;52.286;20.930;2023-04-22T07:29:14;100247.13;;;35.99;14.65
30724;BME280;17473;52.286;20.930;2023-04-22T07:31:42;100248.91;;;34.58;15.40
30724;BME280;17473;52.286;20.930;2023-04-22T07:34:09;100243.69;;;35.19;15.63
30724;BME280;17473;52.286;20.930;2023-04-22T07:36:37;100242.97;;;34.64;15.60
30724;BME280;17473;52.286;20.930;2023-04-22T07:39:04;100250.66;;;34.59;15.87
30724;BME280;17473;52.286;20.930;2023-04-22T07:41:31;100245.25;;;35.23;15.28
30724;BME280;17473;52.286;20.930;2023-04-22T07:43:59;100233.06;;;35.91;14.52
30724;BME280;17473;52.286;20.930;2023-04-22T07:46:26;100233.66;;;36.56;13.92
30724;BME280;17473;52.286;20.930;2023-04-22T07:48:53;100237.47;;;35.80;14.74
30724;BME280;17473;52.286;20.930;2023-04-22T07:51:20;100240.22;;;33.96;15.94
30724;BME280;17473;52.286;20.930;2023-04-22T07:53:47;100223.25;;;33.04;16.26
30724;BME280;17473;52.286;20.930;2023-04-22T07:56:15;100233.91;;;34.76;16.04
30724;BME280;17473;52.286;20.930;2023-04-22T07:58:42;100236.81;;;35.14;15.20
30724;BME280;17473;52.286;20.930;2023-04-22T08:01:09;100237.47;;;35.04;15.06
30724;BME280;17473;52.286;20.930;2023-04-22T08:03:36;100248.28;;;34.12;15.35
30724;BME280;17473;52.286;20.930;2023-04-22T08:06:03;100232.41;;;33.76;15.92
30724;BME280;17473;52.286;20.930;2023-04-22T08:08:30;100240.47;;;34.33;15.27
30724;BME280;17473;52.286;20.930;2023-04-22T08:10:57;100239.88;;;33.59;15.79
30724;BME280;17473;52.286;20.930;2023-04-22T08:13:24;100238.22;;;32.68;16.18
30724;BME280;17473;52.286;20.930;2023-04-22T08:15:51;100238.31;;;31.56;17.06
30724;BME280;17473;52.286;20.930;2023-04-22T08:18:19;100235.47;;;31.91;16.69
30724;BME280;17473;52.286;20.930;2023-04-22T08:20:46;100239.75;;;31.95;17.09
30724;BME280;17473;52.286;20.930;2023-04-22T08:23:13;100229.16;;;32.05;16.46
30724;BME280;17473;52.286;20.930;2023-04-22T08:25:41;100234.25;;;31.81;17.14
30724;BME280;17473;52.286;20.930;2023-04-22T08:28:08;100236.75;;;31.84;17.43
30724;BME280;17473;52.286;20.930;2023-04-22T08:30:35;100230.53;;;32.75;16.54
30724;BME280;17473;52.286;20.930;2023-04-22T08:33:02;100224.84;;;33.08;16.57
30724;BME280;17473;52.286;20.930;2023-04-22T08:35:29;100225.34;;;33.44;16.38
30724;BME280;17473;52.286;20.930;2023-04-22T08:37:57;100228.53;;;32.32;15.91
30724;BME280;17473;52.286;20.930;2023-04-22T08:40:26;100235.59;;;30.54;17.27
30724;BME280;17473;52.286;20.930;2023-04-22T08:42:54;100224.34;;;30.25;17.89
30724;BME280;17473;52.286;20.930;2023-04-22T08:45:24;100228.22;;;30.02;18.33
30724;BME280;17473;52.286;20.930;2023-04-22T08:47:52;100228.75;;;29.72;18.18
30724;BME280;17473;52.286;20.930;2023-04-22T08:50:20;100220.66;;;29.32;18.71
30724;BME280;17473;52.286;20.930;2023-04-22T08:52:51;100213.81;;;30.71;17.61
30724;BME280;17473;52.286;20.930;2023-04-22T08:55:18;100216.13;;;30.79;17.27
30724;BME280;17473;52.286;20.930;2023-04-22T08:57:47;100223.06;;;30.32;17.47
30724;BME280;17473;52.286;20.930;2023-04-22T09:00:15;100227.44;;;30.71;17.26
30724;BME280;17473;52.286;20.930;2023-04-22T09:02:43;100222.59;;;30.41;17.56
30724;BME280;17473;52.286;20.930;2023-04-22T09:05:13;100217.28;;;29.65;17.97
30724;BME280;17473;52.286;20.930;2023-04-22T09:07:40;100205.63;;;29.23;19.41
30724;BME280;17473;52.286;20.930;2023-04-22T09:10:08;100210.03;;;28.86;18.13
30724;BME280;17473;52.286;20.930;2023-04-22T09:12:39;100213.09;;;28.99;18.47
30724;BME280;17473;52.286;20.930;2023-04-22T09:15:07;100207.75;;;29.37;18.47
30724;BME280;17473;52.286;20.930;2023-04-22T09:17:36;100209.41;;;29.00;18.41
30724;BME280;17473;52.286;20.930;2023-04-22T09:20:06;100207.59;;;28.16;18.51
30724;BME280;17473;52.286;20.930;2023-04-22T09:22:47;100209.53;;;27.68;18.85
30724;BME280;17473;52.286;20.930;2023-04-22T09:25:24;100206.78;;;26.98;19.46
30724;BME280;17473;52.286;20.930;2023-04-22T09:27:58;100200.53;;;26.96;19.48
30724;BME280;17473;52.286;20.930;2023-04-22T09:30:31;100201.06;;;26.55;20.67
30724;BME280;17473;52.286;20.930;2023-04-22T09:33:01;100203.22;;;26.71;20.27
30724;BME280;17473;52.286;20.930;2023-04-22T09:35:35;100197.72;;;26.72;20.81
30724;BME280;17473;52.286;20.930;2023-04-22T09:38:05;100210.25;;;27.26;20.40
30724;BME280;17473;52.286;20.930;2023-04-22T09:40:40;100192.44;;;27.42;19.41
30724;BME280;17473;52.286;20.930;2023-04-22T09:43:08;100191.19;;;27.97;19.79
30724;BME280;17473;52.286;20.930;2023-04-22T09:45:39;100194.38;;;28.29;19.90
30724;BME280;17473;52.286;20.930;2023-04-22T09:48:12;100193.72;;;26.05;20.57
30724;BME280;17473;52.286;20.930;2023-04-22T09:50:48;100190.72;;;25.58;21.90
30724;BME280;17473;52.286;20.930;2023-04-22T09:53:20;100182.41;;;26.98;20.64
30724;BME280;17473;52.286;20.930;2023-04-22T09:55:51;100182.50;;;27.67;20.50
30724;BME280;17473;52.286;20.930;2023-04-22T09:58:21;100183.44;;;28.10;19.98
30724;BME280;17473;52.286;20.930;2023-04-22T10:00:56;100183.91;;;27.98;19.39
30724;BME280;17473;52.286;20.930;2023-04-22T10:03:23;100167.13;;;28.53;19.45
30724;BME280;17473;52.286;20.930;2023-04-22T10:05:51;100175.88;;;28.80;19.31
30724;BME280;17473;52.286;20.930;2023-04-22T10:08:18;100180.16;;;28.45;18.69
30724;BME280;17473;52.286;20.930;2023-04-22T10:10:45;100178.31;;;26.61;19.90
30724;BME280;17473;52.286;20.930;2023-04-22T10:13:12;100169.03;;;26.94;20.50
30724;BME280;17473;52.286;20.930;2023-04-22T10:15:43;100186.94;;;25.92;21.72
30724;BME280;17473;52.286;20.930;2023-04-22T10:18:20;100186.06;;;25.91;21.74
30724;BME280;17473;52.286;20.930;2023-04-22T10:20:49;100166.72;;;26.58;21.19
30724;BME280;17473;52.286;20.930;2023-04-22T10:23:22;100169.88;;;26.69;20.21
30724;BME280;17473;52.286;20.930;2023-04-22T10:25:53;100164.31;;;26.74;21.26
30724;BME280;17473;52.286;20.930;2023-04-22T10:28:22;100165.78;;;27.31;20.24
30724;BME280;17473;52.286;20.930;2023-04-22T10:30:50;100159.22;;;26.64;21.87
30724;BME280;17473;52.286;20.930;2023-04-22T10:36:07;100153.97;;;26.60;22.13
30724;BME280;17473;52.286;20.930;2023-04-22T10:41:29;100159.06;;;26.18;22.92
30724;BME280;17473;52.286;20.930;2023-04-22T10:44:06;100160.22;;;26.36;22.25
30724;BME280;17473;52.286;20.930;2023-04-22T10:49:12;100159.06;;;26.94;21.46
30724;BME280;17473;52.286;20.930;2023-04-22T10:51:46;100149.25;;;27.38;23.09
30724;BME280;17473;52.286;20.930;2023-04-22T10:57:19;100145.00;;;27.76;22.34
30724;BME280;17473;52.286;20.930;2023-04-22T10:59:57;100146.16;;;27.71;24.20
30724;BME280;17473;52.286;20.930;2023-04-22T11:02:24;100144.06;;;27.09;22.95
30724;BME280;17473;52.286;20.930;2023-04-22T11:05:19;100132.72;;;26.49;21.76
30724;BME280;17473;52.286;20.930;2023-04-22T11:07:51;100136.53;;;26.43;24.57
30724;BME280;17473;52.286;20.930;2023-04-22T11:10:41;100146.69;;;26.11;23.26
30724;BME280;17473;52.286;20.930;2023-04-22T11:13:19;100140.94;;;25.65;23.20
30724;BME280;17473;52.286;20.930;2023-04-22T11:15:53;100144.44;;;25.69;23.34
30724;BME280;17473;52.286;20.930;2023-04-22T11:18:24;100139.59;;;25.52;23.00
30724;BME280;17473;52.286;20.930;2023-04-22T11:20:52;100134.97;;;25.55;22.87
30724;BME280;17473;52.286;20.930;2023-04-22T11:23:25;100135.03;;;25.54;23.27
30724;BME280;17473;52.286;20.930;2023-04-22T11:26:00;100129.34;;;25.03;23.46
30724;BME280;17473;52.286;20.930;2023-04-22T11:28:28;100131.38;;;24.95;22.98
30724;BME280;17473;52.286;20.930;2023-04-22T11:31:04;100135.63;;;25.04;24.46
30724;BME280;17473;52.286;20.930;2023-04-22T11:33:33;100131.03;;;25.07;24.22
30724;BME280;17473;52.286;20.930;2023-04-22T11:36:00;100128.59;;;24.98;24.09
30724;BME280;17473;52.286;20.930;2023-04-22T11:38:27;100121.34;;;24.67;24.28
30724;BME280;17473;52.286;20.930;2023-04-22T11:40:55;100116.91;;;24.67;24.33
30724;BME280;17473;52.286;20.930;2023-04-22T11:43:24;100118.72;;;24.97;23.62
30724;BME280;17473;52.286;20.930;2023-04-22T11:45:53;100118.00;;;24.59;25.44
30724;BME280;17473;52.286;20.930;2023-04-22T11:48:21;100113.50;;;24.26;24.68
30724;BME280;17473;52.286;20.930;2023-04-22T11:50:48;100110.16;;;24.16;25.04
30724;BME280;17473;52.286;20.930;2023-04-22T11:53:32;100112.63;;;24.26;24.72
30724;BME280;17473;52.286;20.930;2023-04-22T11:55:59;100113.53;;;24.25;24.50
30724;BME280;17473;52.286;20.930;2023-04-22T11:58:28;100120.88;;;24.52;26.53
30724;BME280;17473;52.286;20.930;2023-04-22T12:00:59;100115.63;;;24.48;25.55
30724;BME280;17473;52.286;20.930;2023-04-22T12:03:28;100111.53;;;24.33;25.79
30724;BME280;17473;52.286;20.930;2023-04-22T12:06:04;100099.69;;;24.04;26.46
30724;BME280;17473;52.286;20.930;2023-04-22T12:08:34;100112.53;;;23.94;25.45
30724;BME280;17473;52.286;20.930;2023-04-22T12:11:11;100095.09;;;24.09;25.49
30724;BME280;17473;52.286;20.930;2023-04-22T12:16:18;100107.25;;;23.89;24.46
30724;BME280;17473;52.286;20.930;2023-04-22T12:18:53;100104.09;;;23.34;24.88
30724;BME280;17473;52.286;20.930;2023-04-22T12:21:23;100105.75;;;22.99;25.88
30724;BME280;17473;52.286;20.930;2023-04-22T12:23:59;100091.75;;;23.62;25.05
30724;BME280;17473;52.286;20.930;2023-04-22T12:26:26;100107.00;;;23.63;26.38
30724;BME280;17473;52.286;20.930;2023-04-22T12:28:56;100106.97;;;23.26;26.42
30724;BME280;17473;52.286;20.930;2023-04-22T12:31:24;100103.13;;;23.37;25.96
30724;BME280;17473;52.286;20.930;2023-04-22T12:33:52;100107.66;;;23.35;25.84
30724;BME280;17473;52.286;20.930;2023-04-22T12:36:20;100098.06;;;23.23;26.03
30724;BME280;17473;52.286;20.930;2023-04-22T12:38:48;100094.69;;;23.11;26.71
30724;BME280;17473;52.286;20.930;2023-04-22T12:41:15;100099.16;;;23.12;26.42
30724;BME280;17473;52.286;20.930;2023-04-22T12:43:42;100094.56;;;23.19;25.60
30724;BME280;17473;52.286;20.930;2023-04-22T12:46:10;100090.97;;;23.19;25.81
30724;BME280;17473;52.286;20.930;2023-04-22T12:48:37;100092.75;;;23.21;26.06
30724;BME280;17473;52.286;20.930;2023-04-22T12:51:05;100082.13;;;23.53;25.58
30724;BME280;17473;52.286;20.930;2023-04-22T12:53:33;100082.06;;;23.54;25.68
30724;BME280;17473;52.286;20.930;2023-04-22T12:56:00;100080.53;;;23.44;25.35
30724;BME280;17473;52.286;20.930;2023-04-22T12:58:27;100076.16;;;23.38;25.62
30724;BME280;17473;52.286;20.930;2023-04-22T13:00:54;100073.03;;;23.19;25.48
30724;BME280;17473;52.286;20.930;2023-04-22T13:03:21;100067.88;;;23.08;26.08